createdAt,value
2023-07-18T00:00:19.648Z,99.90
2023-07-18T00:05:22.780Z,99.90
2023-07-18T00:10:24.711Z,99.90
2023-07-18T00:15:26.793Z,99.90
2023-07-18T00:20:28.984Z,99.90
2023-07-18T00:25:30.835Z,99.90
2023-07-18T00:30:32.702Z,99.90
2023-07-18T00:35:35.644Z,99.90
2023-07-18T00:40:37.707Z,99.90
2023-07-18T00:45:39.803Z,99.90
2023-07-18T00:50:41.800Z,99.90
2023-07-18T00:55:44.225Z,99.90
2023-07-18T01:00:46.388Z,99.90
2023-07-18T01:05:48.431Z,99.90
2023-07-18T01:10:51.529Z,99.90
2023-07-18T01:15:53.893Z,99.90
2023-07-18T01:20:56.295Z,99.90
2023-07-18T01:25:58.830Z,99.90
2023-07-18T01:31:00.768Z,99.90
2023-07-18T01:36:02.744Z,99.90
2023-07-18T01:41:04.549Z,99.90
2023-07-18T01:46:06.453Z,99.90
2023-07-18T01:51:08.294Z,99.90
2023-07-18T01:56:10.373Z,99.90
2023-07-18T02:01:12.247Z,99.90
2023-07-18T02:06:14.302Z,99.90
2023-07-18T02:11:16.837Z,99.90
2023-07-18T02:16:18.901Z,99.90
2023-07-18T02:21:21.032Z,99.90
2023-07-18T02:26:23.188Z,99.90
2023-07-18T02:31:24.998Z,99.90
2023-07-18T02:36:26.937Z,99.90
2023-07-18T02:41:28.745Z,99.90
2023-07-18T02:46:30.809Z,99.90
2023-07-18T02:51:32.638Z,99.90
2023-07-18T02:56:35.767Z,99.90
2023-07-18T03:01:37.674Z,99.90
2023-07-18T03:06:39.460Z,99.90
2023-07-18T03:11:41.339Z,99.90
2023-07-18T03:16:43.506Z,99.90
2023-07-18T03:21:45.847Z,99.90
2023-07-18T03:26:47.895Z,99.90
2023-07-18T03:31:49.866Z,99.90
2023-07-18T03:36:52.081Z,99.90
2023-07-18T03:41:54.013Z,99.90
2023-07-18T03:47:02.416Z,99.90
2023-07-18T03:52:12.782Z,99.90
2023-07-18T03:57:15.151Z,99.90
2023-07-18T04:02:17.029Z,99.90
2023-07-18T04:07:21.045Z,99.90
2023-07-18T04:12:23.053Z,99.90
2023-07-18T04:17:25.741Z,99.90
2023-07-18T04:22:30.658Z,99.90
2023-07-18T04:27:33.143Z,99.90
2023-07-18T04:32:35.033Z,99.90
2023-07-18T04:37:37.464Z,99.90
2023-07-18T04:42:39.252Z,99.90
2023-07-18T04:47:41.289Z,99.90
2023-07-18T04:52:43.220Z,99.90
2023-07-18T04:57:45.426Z,99.90
2023-07-18T05:02:47.407Z,99.90
2023-07-18T05:07:49.471Z,99.90
2023-07-18T05:12:55.528Z,99.90
2023-07-18T05:17:57.437Z,99.90
2023-07-18T05:23:00.003Z,99.90
2023-07-18T05:28:01.868Z,99.90
2023-07-18T05:33:03.923Z,99.90
2023-07-18T05:38:05.812Z,99.90
2023-07-18T05:43:07.654Z,99.90
2023-07-18T05:48:09.516Z,99.90
2023-07-18T05:53:11.338Z,99.90
2023-07-18T05:58:13.281Z,99.90
2023-07-18T06:03:15.250Z,99.90
2023-07-18T06:08:17.993Z,99.90
2023-07-18T06:13:19.918Z,99.90
2023-07-18T06:18:22.046Z,99.90
2023-07-18T06:23:23.887Z,99.90
2023-07-18T06:28:25.888Z,95.70
2023-07-18T06:33:27.712Z,95.20
2023-07-18T06:38:29.450Z,94.20
2023-07-18T06:43:31.266Z,94.60
2023-07-18T06:48:33.081Z,94.30
2023-07-18T06:53:34.885Z,83.80
2023-07-18T06:58:36.989Z,67.90
2023-07-18T07:03:39.028Z,66.40
2023-07-18T07:08:40.923Z,54.30
2023-07-18T07:13:42.822Z,42.30
2023-07-18T07:18:44.756Z,39.70
2023-07-18T07:23:46.556Z,40.50
2023-07-18T07:28:48.317Z,42.60
2023-07-18T07:33:50.346Z,41.10
2023-07-18T07:38:52.302Z,40.00
2023-07-18T07:43:54.115Z,38.20
2023-07-18T07:48:55.945Z,38.00
2023-07-18T07:53:59.640Z,39.60
2023-07-18T07:59:10.898Z,41.60
2023-07-18T08:04:13.705Z,42.30
2023-07-18T08:09:16.244Z,47.20
2023-07-18T08:14:18.942Z,42.00
2023-07-18T08:19:21.013Z,40.30
2023-07-18T08:24:22.881Z,42.00
2023-07-18T08:29:33.656Z,45.00
2023-07-18T08:34:38.406Z,51.60
2023-07-18T08:39:40.270Z,52.80
2023-07-18T08:44:43.737Z,41.80
2023-07-18T08:49:45.592Z,39.40
2023-07-18T08:54:49.788Z,41.50
2023-07-18T08:59:53.990Z,38.40
2023-07-18T09:04:55.805Z,36.90
2023-07-18T09:09:59.105Z,38.00
2023-07-18T09:15:01.188Z,33.60
2023-07-18T09:20:09.440Z,40.60
2023-07-18T09:25:16.096Z,45.00
2023-07-18T09:30:34.484Z,48.50
2023-07-18T09:35:40.340Z,44.30
2023-07-18T09:40:42.441Z,38.00
2023-07-18T09:45:44.513Z,36.80
2023-07-18T09:50:50.938Z,42.70
2023-07-18T09:55:54.005Z,36.40
2023-07-18T10:00:57.646Z,30.30
2023-07-18T10:05:59.759Z,27.30
2023-07-18T10:11:05.287Z,30.70
2023-07-18T10:16:16.345Z,31.40
2023-07-18T10:21:36.065Z,30.00
2023-07-18T10:26:37.809Z,52.40
2023-07-18T10:31:40.215Z,82.10
2023-07-18T10:36:54.851Z,96.80
2023-07-18T10:42:06.319Z,99.90
2023-07-18T10:47:17.832Z,99.90
2023-07-18T10:52:21.560Z,99.90
2023-07-18T10:57:33.696Z,92.50
2023-07-18T11:02:40.105Z,82.60
2023-07-18T11:07:44.027Z,77.20
2023-07-18T11:12:46.121Z,75.80
2023-07-18T11:17:49.346Z,71.30
2023-07-18T11:22:51.979Z,69.00
2023-07-18T11:27:53.835Z,59.00
2023-07-18T11:32:55.613Z,59.20
2023-07-18T11:37:57.542Z,54.10
2023-07-18T11:42:59.663Z,55.00
2023-07-18T11:48:01.699Z,55.80
2023-07-18T11:53:04.820Z,58.20
2023-07-18T11:58:09.184Z,55.50
2023-07-18T12:03:11.407Z,51.80
2023-07-18T12:08:14.741Z,53.10
2023-07-18T12:13:17.331Z,51.00
2023-07-18T12:18:19.536Z,47.60
2023-07-18T12:23:21.628Z,50.80
2023-07-18T12:28:23.513Z,51.70
2023-07-18T12:33:25.456Z,48.50
2023-07-18T12:38:30.015Z,49.10
2023-07-18T12:43:32.439Z,49.10
2023-07-18T12:48:34.241Z,47.70
2023-07-18T12:53:35.972Z,47.90
2023-07-18T12:58:37.844Z,50.30
2023-07-18T13:03:39.744Z,48.80
2023-07-18T13:08:41.825Z,51.50
2023-07-18T13:13:43.860Z,51.70
2023-07-18T13:18:46.013Z,51.10
2023-07-18T13:23:47.820Z,53.30
2023-07-18T13:28:49.574Z,51.70
2023-07-18T13:33:51.420Z,52.70
2023-07-18T13:38:53.399Z,48.90
2023-07-18T13:43:55.161Z,49.00
2023-07-18T13:48:58.061Z,48.30
2023-07-18T13:54:00.180Z,49.50
2023-07-18T13:59:02.047Z,49.30
2023-07-18T14:04:03.928Z,48.00
2023-07-18T14:09:05.782Z,50.00
2023-07-18T14:14:08.407Z,49.30
2023-07-18T14:19:10.281Z,48.40
2023-07-18T14:24:12.206Z,50.30
2023-07-18T14:29:14.001Z,50.10
2023-07-18T14:34:15.791Z,48.10
2023-07-18T14:39:18.160Z,48.30
2023-07-18T14:44:19.916Z,46.90
2023-07-18T14:49:21.763Z,49.00
2023-07-18T14:54:23.618Z,47.70
2023-07-18T14:59:25.365Z,46.70
2023-07-18T15:04:27.488Z,48.30
2023-07-18T15:09:29.349Z,48.50
2023-07-18T15:14:31.145Z,48.40
2023-07-18T15:19:33.201Z,49.70
2023-07-18T15:24:34.968Z,48.70
2023-07-18T15:29:36.841Z,50.00
2023-07-18T15:34:39.168Z,50.00
2023-07-18T15:39:40.956Z,49.60
2023-07-18T15:44:43.458Z,49.70
2023-07-18T15:49:45.489Z,51.10
2023-07-18T15:54:47.239Z,51.20
2023-07-18T15:59:49.009Z,52.60
2023-07-18T16:04:50.974Z,51.60
2023-07-18T16:09:56.637Z,52.90
2023-07-18T16:14:59.949Z,53.10
2023-07-18T16:20:01.863Z,53.90
2023-07-18T16:25:05.861Z,54.90
2023-07-18T16:30:08.416Z,54.20
2023-07-18T16:35:10.252Z,54.70
2023-07-18T16:40:12.647Z,54.70
2023-07-18T16:45:14.583Z,54.50
2023-07-18T16:50:16.740Z,55.10
2023-07-18T16:55:18.520Z,53.70
2023-07-18T17:00:20.566Z,53.40
2023-07-18T17:05:22.981Z,55.10
2023-07-18T17:10:25.632Z,56.10
2023-07-18T17:15:27.640Z,57.40
2023-07-18T17:20:29.540Z,57.20
2023-07-18T17:25:31.404Z,58.40
2023-07-18T17:30:33.529Z,58.20
2023-07-18T17:35:35.474Z,59.00
2023-07-18T17:40:37.654Z,60.00
2023-07-18T17:45:39.455Z,59.30
2023-07-18T17:50:41.280Z,59.30
2023-07-18T17:55:44.499Z,60.00
2023-07-18T18:00:46.436Z,60.40
2023-07-18T18:05:48.751Z,60.70
2023-07-18T18:10:51.471Z,60.90
2023-07-18T18:16:06.534Z,61.30
2023-07-18T18:21:12.150Z,60.90
2023-07-18T18:26:14.010Z,60.30
2023-07-18T18:31:16.341Z,61.50
2023-07-18T18:36:24.083Z,63.20
2023-07-18T18:41:25.956Z,62.20
2023-07-18T18:46:27.880Z,62.30
2023-07-18T18:51:29.726Z,62.30
2023-07-18T18:56:31.567Z,63.70
2023-07-18T19:01:33.439Z,64.20
2023-07-18T19:06:35.501Z,64.60
2023-07-18T19:11:37.258Z,64.50
2023-07-18T19:16:40.791Z,66.10
2023-07-18T19:21:43.190Z,65.80
2023-07-18T19:26:44.959Z,68.30
2023-07-18T19:31:47.094Z,69.50
2023-07-18T19:36:49.394Z,69.10
2023-07-18T19:41:51.232Z,70.60
2023-07-18T19:46:53.033Z,70.90
2023-07-18T19:51:55.408Z,72.50
2023-07-18T19:56:57.223Z,73.60
2023-07-18T20:01:59.035Z,71.70
2023-07-18T20:07:01.176Z,71.60
2023-07-18T20:12:03.028Z,72.90
2023-07-18T20:17:05.508Z,71.20
2023-07-18T20:22:07.398Z,71.40
2023-07-18T20:27:09.186Z,71.90
2023-07-18T20:32:11.263Z,73.10
2023-07-18T20:37:13.169Z,73.50
2023-07-18T20:42:14.979Z,74.20
2023-07-18T20:47:16.764Z,74.80
2023-07-18T20:52:18.599Z,74.70
2023-07-18T20:57:20.541Z,75.70
2023-07-18T21:02:22.809Z,75.80
2023-07-18T21:07:24.600Z,75.90
2023-07-18T21:12:26.429Z,75.50
2023-07-18T21:17:28.534Z,75.60
2023-07-18T21:22:30.505Z,75.90
2023-07-18T21:27:32.306Z,75.80
2023-07-18T21:32:35.393Z,75.70
2023-07-18T21:37:37.229Z,75.60
2023-07-18T21:42:39.169Z,76.90
2023-07-18T21:47:41.236Z,77.40
2023-07-18T21:52:44.545Z,77.70
2023-07-18T21:57:46.352Z,78.80
2023-07-18T22:02:48.309Z,78.20
2023-07-18T22:07:50.321Z,79.10
2023-07-18T22:12:52.178Z,79.90
2023-07-18T22:17:53.976Z,81.00
2023-07-18T22:22:55.879Z,80.80
2023-07-18T22:27:57.746Z,81.10
2023-07-18T22:32:59.596Z,82.20
2023-07-18T22:38:03.802Z,82.30
2023-07-18T22:43:06.756Z,82.90
2023-07-18T22:48:08.565Z,83.40
2023-07-18T22:53:10.372Z,84.30
2023-07-18T22:58:12.127Z,85.30
2023-07-18T23:03:15.614Z,86.00
2023-07-18T23:08:17.528Z,86.60
2023-07-18T23:13:19.360Z,87.80
2023-07-18T23:18:21.324Z,87.90
2023-07-18T23:23:23.207Z,88.50
2023-07-18T23:28:25.113Z,90.00
2023-07-18T23:33:26.923Z,88.60
2023-07-18T23:38:29.444Z,89.50
2023-07-18T23:43:31.641Z,90.10
2023-07-18T23:48:34.197Z,90.60
2023-07-18T23:53:36.179Z,90.40
2023-07-18T23:58:37.997Z,90.70
